Willwood, New York
Current Conditions -  °F | °C
As of 4:56 AM on Friday 24 Oct 2014 (Local Time) from KHWV Reporting Station
Overcast Overcast  
Wind Chill: 51°   Ceiling: 3200
Heat Index: 51°   Visibility: 10mi
Dew Point: 46°   Wind: 13mph
Humidity: 83%   Direction: 330°NNW
Pressure: 29.74"   Gusts: 23mph
Location:  40.953°N, 72.8286°W
Report Text: KHWV 240856Z AUTO 33011G20KT 10SM SCT023 OVC032 11/08 A2974 RMK AO2 SLP071 60000 T01060078 53009 TSNO
Loading
Personal Weather Stations






























Interactive Weather Map
Tropical Storm Tracking
New forecast layout! Learn more

10-Day Weather Forecast

Advertisements
Track Severe Weather on mobile